首页
METAR-TAF:

METAR-TAF

机场 :

法兰西堡, 馬提尼克

馬丁尼克-亞米-凱薩國際機場

纬度: 14-36N, 经度: 061-00W, 海拔: 5米

当前天气观测

该预报发布于21分钟前的06:30 UTC
风速10节,风向
温度 25°C
湿度 83%
气压 1015 hPa
能见度10公里或以上

METAR: TFFF 200630Z AUTO 09010KT 9999 FEW025/// SCT070/// 25/22 Q1015 TEMPO 4000 SHRA BKN018TCU

时间: 02:51 (06:51 UTC)

预报

该预报发布于1小时和51分钟前的05:00 UTC
预报有效从20日的 06点(UTC)到 21日的 06点(UTC)
风速10节,风向
能见度10公里或以上
散云层高于2300英尺
几率 30% :
短暂存在
从 20日的 06点(UTC)到 20日的 24点(UTC)
能見度: 4000
多云层高于1800英尺, 塔状积云.
阵雨

TAF: TFFF 200500Z 2006/2106 09010KT 9999 SCT023 PROB30 TEMPO 2006/2024 4000 SHRA BKN018TCU

超过4000个机场的气象观测和天气预报(METAR&TAF报告)。

可查询的气象台以黄色和红色小点在地图上表示。

将鼠标移到小点上方,可查看气象台名称。

然后点击查看天气观测和预报。

如需切换地图:点击带黑十字的绿色按钮放大地图;点击带横线的绿色按钮缩小地图;或者点击绿色箭头查看邻近地区的地图。


METAR-TAF: